Time;durP1;ratioP1;P1;durP2;ratioP2;P2;SDS_P1;SDS_P2;PMS_P1;PMS_P2;Temp;Humidity;BMP_temperature;BMP_pressure;BME280_temperature;BME280_humidity;BME280_pressure;Samples;Min_cycle;Max_cycle;Signal;HPM_P1;HPM_P2
2023/12/14 00:00:55;;;;;;;28.90;15.57;;;;;;;;;;5011128;28;20193;-73
2023/12/14 00:03:20;;;;;;;27.20;14.97;;;;;;;;;;5028877;28;20206;-73
2023/12/14 00:05:46;;;;;;;26.63;16.37;;;;;;;;;;5031433;28;20284;-73
2023/12/14 00:08:11;;;;;;;29.43;16.73;;;;;;;;;;5027611;28;20282;-73
2023/12/14 00:10:37;;;;;;;27.90;15.70;;;;;;;;;;5012670;28;20350;-73
2023/12/14 00:13:04;;;;;;;29.93;17.10;;;;;;;;;;5026911;28;20305;-73
2023/12/14 00:15:29;;;;;;;28.30;15.63;;;;;;;;;;5032778;28;20320;-73
2023/12/14 00:17:55;;;;;;;28.45;16.15;;;;;;;;;;5044203;28;20296;-73
2023/12/14 00:20:20;;;;;;;29.17;16.80;;;;;;;;;;5039111;28;20569;-73
2023/12/14 00:22:46;;;;;;;28.77;16.30;;;;;;;;;;5022631;28;20650;-73
2023/12/14 00:25:11;;;;;;;27.53;16.43;;;;;;;;;;5022890;28;20677;-73
2023/12/14 00:27:36;;;;;;;27.47;17.13;;;;;;;;;;5024535;28;20634;-73
2023/12/14 00:30:02;;;;;;;25.47;15.33;;;;;;;;;;5031295;28;20261;-74
2023/12/14 00:32:28;;;;;;;27.20;15.20;;;;;;;;;;5022365;28;20189;-74
2023/12/14 00:34:53;;;;;;;25.73;15.07;;;;;;;;;;5025862;28;20229;-74
2023/12/14 00:37:18;;;;;;;23.93;14.60;;;;;;;;;;5026680;28;20687;-74
2023/12/14 00:39:44;;;;;;;23.60;14.67;;;;;;;;;;5029825;28;20201;-74
2023/12/14 00:42:09;;;;;;;27.37;14.60;;;;;;;;;;5038322;28;20242;-74
2023/12/14 00:44:34;;;;;;;27.37;14.40;;;;;;;;;;5034821;28;20295;-74
2023/12/14 00:47:00;;;;;;;24.70;14.47;;;;;;;;;;5025352;28;20288;-74
2023/12/14 00:49:27;;;;;;;22.57;14.43;;;;;;;;;;5035002;28;20190;-74
2023/12/14 00:51:53;;;;;;;25.63;15.43;;;;;;;;;;5019204;28;20190;-74
2023/12/14 00:54:18;;;;;;;24.07;14.10;;;;;;;;;;5036555;28;20197;-74
2023/12/14 00:56:44;;;;;;;22.23;13.30;;;;;;;;;;5018918;28;20233;-74
2023/12/14 00:59:09;;;;;;;21.83;13.13;;;;;;;;;;5022140;28;20309;-74
2023/12/14 01:01:34;;;;;;;25.97;13.20;;;;;;;;;;5028718;28;20189;-74
2023/12/14 01:04:00;;;;;;;20.13;13.10;;;;;;;;;;5022568;28;20209;-74
2023/12/14 01:06:25;;;;;;;22.47;13.80;;;;;;;;;;5028840;28;20195;-74
2023/12/14 01:08:51;;;;;;;19.27;13.27;;;;;;;;;;5023395;28;20194;-74
2023/12/14 01:11:16;;;;;;;21.80;13.03;;;;;;;;;;5030445;28;20709;-74
2023/12/14 01:13:42;;;;;;;18.67;11.97;;;;;;;;;;5013558;28;20178;-74
2023/12/14 01:16:07;;;;;;;18.53;12.70;;;;;;;;;;5034366;28;20241;-74
2023/12/14 01:18:33;;;;;;;20.27;12.77;;;;;;;;;;5007091;28;20680;-74
2023/12/14 01:20:58;;;;;;;21.73;13.40;;;;;;;;;;5029140;28;20220;-74
2023/12/14 01:23:23;;;;;;;18.63;12.57;;;;;;;;;;5027462;28;20598;-74
2023/12/14 01:25:49;;;;;;;21.37;12.90;;;;;;;;;;5035101;28;20251;-74
2023/12/14 01:28:15;;;;;;;18.60;12.00;;;;;;;;;;5038715;28;20186;-74
2023/12/14 01:30:40;;;;;;;19.03;12.00;;;;;;;;;;5025551;28;20198;-73
2023/12/14 01:33:05;;;;;;;17.90;11.50;;;;;;;;;;5039595;28;20213;-74
2023/12/14 01:35:31;;;;;;;18.90;12.13;;;;;;;;;;5022983;28;20229;-74
2023/12/14 01:37:59;;;;;;;17.70;11.67;;;;;;;;;;5023026;28;20212;-74
2023/12/14 01:40:24;;;;;;;19.33;11.93;;;;;;;;;;5017456;28;20559;-73
2023/12/14 01:42:50;;;;;;;15.87;10.83;;;;;;;;;;5019687;28;20182;-73
2023/12/14 01:45:16;;;;;;;15.83;10.93;;;;;;;;;;5030777;28;20187;-73
2023/12/14 01:47:42;;;;;;;17.10;12.07;;;;;;;;;;5033505;28;20796;-73
2023/12/14 01:50:08;;;;;;;16.27;11.47;;;;;;;;;;5030715;28;20335;-73
2023/12/14 01:52:33;;;;;;;15.00;10.83;;;;;;;;;;5037604;28;20288;-73
2023/12/14 01:54:59;;;;;;;15.43;11.27;;;;;;;;;;5036742;28;20189;-73
2023/12/14 01:57:25;;;;;;;17.13;11.37;;;;;;;;;;5031305;28;20210;-73
2023/12/14 01:59:50;;;;;;;15.80;10.80;;;;;;;;;;5037007;28;20194;-73
2023/12/14 02:02:15;;;;;;;17.93;11.57;;;;;;;;;;5027412;28;20198;-73
2023/12/14 02:04:41;;;;;;;18.63;12.83;;;;;;;;;;5044283;28;20196;-73
2023/12/14 02:07:06;;;;;;;17.20;11.20;;;;;;;;;;5029751;28;20269;-73
2023/12/14 02:09:32;;;;;;;15.03;11.33;;;;;;;;;;5010614;28;20674;-73
2023/12/14 02:11:57;;;;;;;17.93;11.70;;;;;;;;;;5033951;28;20325;-73
2023/12/14 02:14:23;;;;;;;16.33;11.60;;;;;;;;;;5018682;28;20190;-73
2023/12/14 02:16:48;;;;;;;16.87;11.90;;;;;;;;;;5030559;28;20324;-73
2023/12/14 02:19:14;;;;;;;16.80;11.57;;;;;;;;;;5008720;28;20310;-73
2023/12/14 02:21:39;;;;;;;18.57;12.23;;;;;;;;;;5033043;28;20191;-73
2023/12/14 02:24:05;;;;;;;17.83;12.30;;;;;;;;;;5028933;28;20186;-73
2023/12/14 02:26:30;;;;;;;20.30;12.57;;;;;;;;;;5030446;28;20408;-73
2023/12/14 02:28:56;;;;;;;19.33;12.53;;;;;;;;;;5030198;28;20197;-73
2023/12/14 02:31:22;;;;;;;17.47;12.47;;;;;;;;;;5030668;28;20190;-73
2023/12/14 02:33:48;;;;;;;19.17;12.30;;;;;;;;;;5032669;28;20890;-73
2023/12/14 02:36:13;;;;;;;18.83;12.87;;;;;;;;;;5033727;28;20289;-73
2023/12/14 02:38:39;;;;;;;16.43;11.60;;;;;;;;;;5031692;28;20698;-73
2023/12/14 02:41:04;;;;;;;17.93;12.50;;;;;;;;;;5024855;28;20243;-73
2023/12/14 02:43:30;;;;;;;17.23;11.93;;;;;;;;;;5027980;28;20234;-73
2023/12/14 02:46:01;;;;;;;17.20;11.30;;;;;;;;;;5031712;28;20182;-73
2023/12/14 02:48:27;;;;;;;17.53;12.10;;;;;;;;;;5036818;28;20233;-73
2023/12/14 02:50:52;;;;;;;17.13;12.23;;;;;;;;;;5030223;28;20189;-74
2023/12/14 02:53:17;;;;;;;16.07;11.53;;;;;;;;;;5033494;28;20198;-74
2023/12/14 02:55:43;;;;;;;19.63;12.60;;;;;;;;;;5025840;28;20532;-74
2023/12/14 02:58:08;;;;;;;16.53;11.93;;;;;;;;;;5031524;28;20385;-74
2023/12/14 03:00:34;;;;;;;16.77;11.63;;;;;;;;;;5018929;28;20205;-73
2023/12/14 03:02:59;;;;;;;17.23;11.33;;;;;;;;;;5030360;28;20573;-74
2023/12/14 03:05:24;;;;;;;18.30;11.90;;;;;;;;;;5028850;28;20206;-74
2023/12/14 03:07:50;;;;;;;17.10;11.47;;;;;;;;;;5029403;28;20605;-73
2023/12/14 03:10:15;;;;;;;17.07;11.73;;;;;;;;;;5026476;28;20190;-74
2023/12/14 03:12:41;;;;;;;16.83;11.83;;;;;;;;;;5026594;28;20201;-74
2023/12/14 03:15:07;;;;;;;18.67;12.20;;;;;;;;;;5025265;28;20393;-74
2023/12/14 03:17:32;;;;;;;16.17;11.30;;;;;;;;;;5018344;28;20772;-74
2023/12/14 03:19:57;;;;;;;16.00;11.50;;;;;;;;;;5011728;28;20289;-73
2023/12/14 03:22:23;;;;;;;19.73;12.27;;;;;;;;;;5022673;28;20601;-74
2023/12/14 03:24:48;;;;;;;17.83;11.70;;;;;;;;;;5027644;28;20204;-73
2023/12/14 03:27:14;;;;;;;17.50;11.20;;;;;;;;;;5030375;28;20193;-73
2023/12/14 03:29:39;;;;;;;16.67;11.57;;;;;;;;;;5023376;28;20201;-74
2023/12/14 03:32:05;;;;;;;18.50;11.87;;;;;;;;;;5025585;28;20203;-73
2023/12/14 03:34:30;;;;;;;16.07;11.70;;;;;;;;;;5031869;28;20200;-74
2023/12/14 03:36:56;;;;;;;17.20;11.97;;;;;;;;;;5022818;28;20190;-73
2023/12/14 03:39:21;;;;;;;16.87;11.13;;;;;;;;;;5016497;28;20285;-74
2023/12/14 03:41:47;;;;;;;15.07;11.27;;;;;;;;;;5037222;28;20277;-74
2023/12/14 03:44:12;;;;;;;16.77;11.37;;;;;;;;;;5037527;28;20218;-74
2023/12/14 03:46:37;;;;;;;15.80;11.10;;;;;;;;;;5021561;28;20232;-74
2023/12/14 03:49:03;;;;;;;17.87;11.10;;;;;;;;;;5013831;28;20540;-73
2023/12/14 03:51:29;;;;;;;16.90;11.13;;;;;;;;;;5023902;28;20206;-73
2023/12/14 03:53:54;;;;;;;15.43;11.10;;;;;;;;;;5018514;28;20251;-73
2023/12/14 03:56:20;;;;;;;17.53;12.00;;;;;;;;;;5030936;28;20204;-74
2023/12/14 03:58:45;;;;;;;17.07;11.83;;;;;;;;;;5026918;28;20218;-73
2023/12/14 04:01:20;;;;;;;17.57;11.57;;;;;;;;;;5025673;28;20663;-73
2023/12/14 04:03:47;;;;;;;18.60;11.47;;;;;;;;;;5018643;28;20510;-73
2023/12/14 04:06:13;;;;;;;16.73;12.03;;;;;;;;;;5039799;28;20181;-73
2023/12/14 04:08:39;;;;;;;16.90;12.27;;;;;;;;;;5026426;28;20625;-73
2023/12/14 04:11:05;;;;;;;16.57;11.40;;;;;;;;;;5029223;28;20327;-73
2023/12/14 04:13:30;;;;;;;17.87;12.10;;;;;;;;;;5019767;28;20542;-73
2023/12/14 04:15:56;;;;;;;16.03;11.60;;;;;;;;;;5025782;28;20323;-73
2023/12/14 04:18:21;;;;;;;16.83;11.57;;;;;;;;;;5039305;28;20221;-73
2023/12/14 04:20:47;;;;;;;16.97;11.90;;;;;;;;;;5022491;28;20199;-72
2023/12/14 04:23:12;;;;;;;18.73;12.33;;;;;;;;;;5020820;28;20190;-73
2023/12/14 04:25:38;;;;;;;16.23;11.57;;;;;;;;;;5021605;28;20269;-73
2023/12/14 04:28:03;;;;;;;16.70;11.73;;;;;;;;;;5036582;28;20539;-73
2023/12/14 04:30:29;;;;;;;16.60;11.23;;;;;;;;;;5026639;28;20197;-73
2023/12/14 04:32:54;;;;;;;17.43;11.70;;;;;;;;;;5030316;28;20240;-73
2023/12/14 04:35:22;;;;;;;18.17;11.00;;;;;;;;;;5039273;28;20189;-73
2023/12/14 04:37:47;;;;;;;15.43;10.77;;;;;;;;;;5037306;28;20209;-73
2023/12/14 04:40:12;;;;;;;16.97;11.43;;;;;;;;;;5027888;28;20182;-72
2023/12/14 04:42:38;;;;;;;20.47;11.50;;;;;;;;;;5020252;28;20223;-72
2023/12/14 04:45:04;;;;;;;17.77;11.37;;;;;;;;;;5030170;28;20232;-73
2023/12/14 04:47:29;;;;;;;19.27;11.73;;;;;;;;;;5031441;28;20222;-73
2023/12/14 04:49:55;;;;;;;17.90;11.93;;;;;;;;;;5024049;28;20675;-72
2023/12/14 04:52:20;;;;;;;18.87;11.33;;;;;;;;;;5028641;28;20657;-72
2023/12/14 04:54:45;;;;;;;18.53;10.53;;;;;;;;;;5028079;28;20273;-72
2023/12/14 04:57:11;;;;;;;18.37;11.13;;;;;;;;;;5030457;28;20196;-72
2023/12/14 04:59:36;;;;;;;17.67;11.07;;;;;;;;;;5038156;28;20231;-72
2023/12/14 05:02:02;;;;;;;15.97;10.90;;;;;;;;;;5036584;28;20186;-72
2023/12/14 05:04:27;;;;;;;19.07;10.73;;;;;;;;;;5026009;28;20657;-72
2023/12/14 05:06:53;;;;;;;17.50;10.77;;;;;;;;;;5027641;28;20247;-72
2023/12/14 05:09:18;;;;;;;18.17;11.17;;;;;;;;;;5038717;28;20178;-73
2023/12/14 05:11:43;;;;;;;17.37;10.93;;;;;;;;;;5024704;28;20719;-74
2023/12/14 05:14:09;;;;;;;18.50;11.50;;;;;;;;;;5029991;28;20209;-73
2023/12/14 05:16:34;;;;;;;20.13;11.13;;;;;;;;;;5028437;28;20281;-73
2023/12/14 05:19:00;;;;;;;19.93;11.03;;;;;;;;;;5025833;28;20218;-73
2023/12/14 05:21:25;;;;;;;17.70;11.13;;;;;;;;;;5029103;28;20667;-73
2023/12/14 05:23:50;;;;;;;17.23;11.67;;;;;;;;;;5026456;28;20281;-73
2023/12/14 05:26:16;;;;;;;17.23;11.43;;;;;;;;;;5024858;28;20193;-73
2023/12/14 05:28:42;;;;;;;17.87;10.43;;;;;;;;;;5025991;28;20531;-73
2023/12/14 05:31:07;;;;;;;18.17;11.10;;;;;;;;;;5024638;28;20272;-73
2023/12/14 05:33:37;;;;;;;17.43;11.47;;;;;;;;;;5026463;28;20189;-73
2023/12/14 05:36:05;;;;;;;20.00;11.67;;;;;;;;;;5041533;28;20280;-73
2023/12/14 05:38:31;;;;;;;17.23;11.07;;;;;;;;;;5037820;28;20218;-72
2023/12/14 05:40:56;;;;;;;19.63;11.77;;;;;;;;;;5034820;28;20186;-73
2023/12/14 05:43:21;;;;;;;19.20;11.90;;;;;;;;;;5024258;28;20202;-73
2023/12/14 05:45:47;;;;;;;23.53;12.03;;;;;;;;;;5037747;28;20190;-73
2023/12/14 05:48:13;;;;;;;18.63;12.20;;;;;;;;;;5031503;28;20495;-73
2023/12/14 05:50:39;;;;;;;19.87;10.90;;;;;;;;;;5031290;28;20247;-73
2023/12/14 05:53:04;;;;;;;18.87;11.00;;;;;;;;;;5034588;28;20193;-73
2023/12/14 05:55:29;;;;;;;17.47;11.10;;;;;;;;;;5041767;28;20217;-74
2023/12/14 05:57:56;;;;;;;23.60;11.43;;;;;;;;;;5035301;28;20660;-74
2023/12/14 06:00:21;;;;;;;19.37;11.77;;;;;;;;;;5033713;28;20197;-74
2023/12/14 06:02:47;;;;;;;18.23;11.50;;;;;;;;;;5027470;28;20740;-74
2023/12/14 06:05:13;;;;;;;19.17;11.77;;;;;;;;;;5028527;28;20194;-74
2023/12/14 06:07:38;;;;;;;18.00;11.20;;;;;;;;;;5037711;28;20269;-74
2023/12/14 06:10:04;;;;;;;18.93;11.40;;;;;;;;;;5023015;28;20503;-74
2023/12/14 06:12:29;;;;;;;18.57;11.17;;;;;;;;;;5026828;28;20191;-74
2023/12/14 06:14:55;;;;;;;16.53;10.70;;;;;;;;;;5019991;28;20561;-74
2023/12/14 06:17:20;;;;;;;18.60;11.50;;;;;;;;;;5023850;28;20312;-74
2023/12/14 06:19:46;;;;;;;18.33;10.90;;;;;;;;;;5024518;28;20237;-74
2023/12/14 06:22:11;;;;;;;16.43;10.83;;;;;;;;;;5022001;28;20615;-74
2023/12/14 06:24:37;;;;;;;16.23;10.73;;;;;;;;;;5017194;28;20566;-74
2023/12/14 06:27:03;;;;;;;14.97;10.10;;;;;;;;;;5025496;28;20821;-74
2023/12/14 06:29:29;;;;;;;16.23;10.73;;;;;;;;;;5025291;28;20204;-74
2023/12/14 06:31:54;;;;;;;16.93;10.57;;;;;;;;;;5023688;28;20205;-74
2023/12/14 06:34:19;;;;;;;16.00;9.80;;;;;;;;;;5018340;28;20186;-74
2023/12/14 06:36:45;;;;;;;14.30;9.50;;;;;;;;;;5026092;28;20194;-74
2023/12/14 06:39:11;;;;;;;16.00;10.70;;;;;;;;;;5017454;28;20232;-74
2023/12/14 06:41:37;;;;;;;13.03;9.23;;;;;;;;;;5025652;28;20217;-75
2023/12/14 06:44:03;;;;;;;13.67;9.30;;;;;;;;;;5019570;28;20189;-74
2023/12/14 06:46:28;;;;;;;15.90;9.70;;;;;;;;;;5022484;28;20565;-74
2023/12/14 06:48:55;;;;;;;12.70;9.70;;;;;;;;;;5017221;28;21368;-74
2023/12/14 06:51:24;;;;;;;13.40;9.63;;;;;;;;;;5018035;28;20197;-74
2023/12/14 06:53:49;;;;;;;12.57;8.97;;;;;;;;;;5020194;28;20197;-73
2023/12/14 06:56:15;;;;;;;15.33;9.63;;;;;;;;;;5024087;28;20202;-74
2023/12/14 06:58:42;;;;;;;15.87;9.50;;;;;;;;;;5023811;28;20218;-74
2023/12/14 07:01:12;;;;;;;15.47;9.83;;;;;;;;;;5022389;28;20197;-74
2023/12/14 07:03:40;;;;;;;15.63;9.63;;;;;;;;;;5025929;28;20557;-73
2023/12/14 07:06:06;;;;;;;14.07;9.83;;;;;;;;;;5022281;28;20234;-74
2023/12/14 07:08:32;;;;;;;13.53;9.73;;;;;;;;;;5027602;28;20197;-74
2023/12/14 07:10:57;;;;;;;15.13;10.23;;;;;;;;;;5033995;28;20198;-74
2023/12/14 07:13:23;;;;;;;14.83;10.47;;;;;;;;;;5027955;28;20232;-75
2023/12/14 07:15:48;;;;;;;14.93;10.17;;;;;;;;;;5029437;28;20241;-74
2023/12/14 07:18:14;;;;;;;15.27;9.83;;;;;;;;;;5031975;28;20245;-74
2023/12/14 07:20:39;;;;;;;13.90;10.43;;;;;;;;;;5015326;28;20210;-74
2023/12/14 07:23:05;;;;;;;18.10;11.83;;;;;;;;;;5019110;28;20609;-74
2023/12/14 07:25:30;;;;;;;14.93;10.67;;;;;;;;;;5028045;28;20223;-74
2023/12/14 07:27:55;;;;;;;15.27;11.20;;;;;;;;;;5020081;28;20611;-74
2023/12/14 07:30:21;;;;;;;15.63;10.90;;;;;;;;;;5029697;28;20189;-73
2023/12/14 07:32:47;;;;;;;14.10;10.17;;;;;;;;;;5015827;28;20569;-73
2023/12/14 07:35:12;;;;;;;13.33;10.83;;;;;;;;;;5015359;28;20186;-73
2023/12/14 07:37:38;;;;;;;16.40;11.27;;;;;;;;;;5015013;28;20610;-73
2023/12/14 07:40:04;;;;;;;14.67;10.53;;;;;;;;;;5009547;28;20796;-73
2023/12/14 07:42:29;;;;;;;16.40;10.90;;;;;;;;;;5002431;28;20352;-73
2023/12/14 07:44:55;;;;;;;13.80;10.77;;;;;;;;;;5015260;28;20305;-73
2023/12/14 07:47:20;;;;;;;13.80;10.60;;;;;;;;;;5015202;28;20325;-73
2023/12/14 07:49:45;;;;;;;14.17;10.63;;;;;;;;;;5015710;28;20225;-73
2023/12/14 07:52:13;;;;;;;14.77;10.60;;;;;;;;;;5015164;28;20604;-73
2023/12/14 07:54:38;;;;;;;17.37;11.67;;;;;;;;;;5021322;28;20651;-73
2023/12/14 07:57:04;;;;;;;12.80;10.33;;;;;;;;;;5004988;28;20277;-72
2023/12/14 07:59:29;;;;;;;15.30;10.63;;;;;;;;;;5015665;28;20206;-72
2023/12/14 08:01:55;;;;;;;13.23;10.40;;;;;;;;;;5027505;28;20237;-72
2023/12/14 08:04:20;;;;;;;13.57;10.80;;;;;;;;;;5026231;28;20189;-72
2023/12/14 08:06:46;;;;;;;14.43;10.43;;;;;;;;;;5021255;28;20191;-72
2023/12/14 08:09:11;;;;;;;14.97;11.10;;;;;;;;;;5016745;28;20175;-73
2023/12/14 08:11:36;;;;;;;15.37;10.73;;;;;;;;;;5025843;28;20203;-72
2023/12/14 08:14:02;;;;;;;15.07;10.60;;;;;;;;;;5022130;28;20244;-73
2023/12/14 08:16:28;;;;;;;15.10;11.17;;;;;;;;;;5022795;28;20295;-73
2023/12/14 08:18:54;;;;;;;15.23;10.97;;;;;;;;;;5018322;28;20706;-73
2023/12/14 08:21:19;;;;;;;15.03;10.67;;;;;;;;;;5014764;28;20229;-72
2023/12/14 08:23:45;;;;;;;14.20;10.27;;;;;;;;;;5030294;28;20272;-72
2023/12/14 08:26:12;;;;;;;17.23;10.47;;;;;;;;;;5027098;28;20214;-72
2023/12/14 08:28:38;;;;;;;14.10;10.50;;;;;;;;;;5011783;28;20562;-72
2023/12/14 08:31:04;;;;;;;16.43;10.87;;;;;;;;;;5022715;28;20269;-72
2023/12/14 08:33:30;;;;;;;13.87;11.03;;;;;;;;;;5019671;28;20241;-73
2023/12/14 08:35:56;;;;;;;15.33;10.80;;;;;;;;;;5036510;28;20191;-73
2023/12/14 08:38:21;;;;;;;13.90;10.77;;;;;;;;;;5026383;28;20743;-73
2023/12/14 08:40:47;;;;;;;12.37;10.03;;;;;;;;;;5013058;28;20201;-73
2023/12/14 08:43:13;;;;;;;15.27;11.47;;;;;;;;;;5024810;28;20189;-73
2023/12/14 08:45:38;;;;;;;16.00;11.83;;;;;;;;;;5013992;28;20268;-73
2023/12/14 08:48:04;;;;;;;14.27;11.27;;;;;;;;;;5024815;28;20191;-73
2023/12/14 08:50:30;;;;;;;13.97;10.23;;;;;;;;;;5022910;28;20217;-73
2023/12/14 08:52:58;;;;;;;15.27;10.93;;;;;;;;;;5021046;28;20189;-73
2023/12/14 08:55:24;;;;;;;14.97;9.93;;;;;;;;;;5026205;28;20191;-73
2023/12/14 08:57:49;;;;;;;15.97;10.37;;;;;;;;;;5033630;28;20547;-73
2023/12/14 09:00:15;;;;;;;15.40;9.93;;;;;;;;;;5031465;28;20193;-73
2023/12/14 09:02:41;;;;;;;14.80;9.50;;;;;;;;;;5025554;28;20217;-73
2023/12/14 09:05:07;;;;;;;15.60;10.80;;;;;;;;;;5023050;28;20640;-73
2023/12/14 09:07:33;;;;;;;15.40;10.50;;;;;;;;;;5024081;28;20198;-73
2023/12/14 09:09:58;;;;;;;14.10;9.73;;;;;;;;;;5035904;28;20197;-73
2023/12/14 09:12:24;;;;;;;20.20;11.73;;;;;;;;;;5026855;28;20191;-73
2023/12/14 09:14:49;;;;;;;15.93;11.70;;;;;;;;;;5029283;28;20186;-73
2023/12/14 09:17:14;;;;;;;16.63;11.17;;;;;;;;;;5029864;28;20248;-72
2023/12/14 09:19:40;;;;;;;14.43;10.80;;;;;;;;;;5031056;28;20264;-72
2023/12/14 09:22:06;;;;;;;15.37;10.97;;;;;;;;;;5031336;28;20222;-73
2023/12/14 09:24:31;;;;;;;19.50;11.07;;;;;;;;;;5022543;28;20219;-73
2023/12/14 09:26:58;;;;;;;16.40;11.07;;;;;;;;;;5030266;28;20248;-73
2023/12/14 09:29:23;;;;;;;15.67;10.93;;;;;;;;;;5031450;28;20186;-73
2023/12/14 09:31:48;;;;;;;15.97;11.10;;;;;;;;;;5022213;28;20532;-73
2023/12/14 09:34:14;;;;;;;13.30;10.37;;;;;;;;;;5021753;28;20229;-73
2023/12/14 09:36:39;;;;;;;13.83;9.87;;;;;;;;;;5022025;28;20325;-72
2023/12/14 09:39:07;;;;;;;16.90;12.10;;;;;;;;;;5028193;28;20276;-72
2023/12/14 09:41:33;;;;;;;15.03;10.57;;;;;;;;;;5020067;28;20201;-72
2023/12/14 09:43:59;;;;;;;14.83;10.87;;;;;;;;;;5029525;28;20235;-72
2023/12/14 09:46:25;;;;;;;13.35;9.88;;;;;;;;;;5030448;28;20217;-73
2023/12/14 09:48:51;;;;;;;18.77;10.37;;;;;;;;;;5036232;28;20217;-73
2023/12/14 09:51:16;;;;;;;19.00;10.93;;;;;;;;;;5030443;28;20233;-73
2023/12/14 09:53:42;;;;;;;17.57;10.27;;;;;;;;;;5028064;28;20189;-72
2023/12/14 09:56:08;;;;;;;16.70;9.77;;;;;;;;;;5015953;28;20187;-72
2023/12/14 09:58:34;;;;;;;16.27;11.17;;;;;;;;;;5035617;28;20559;-72
2023/12/14 10:01:01;;;;;;;13.63;10.70;;;;;;;;;;5027203;28;20193;-72
2023/12/14 10:03:28;;;;;;;14.88;10.18;;;;;;;;;;5028179;28;20201;-72
2023/12/14 10:05:55;;;;;;;15.00;10.27;;;;;;;;;;5026669;28;20190;-73
2023/12/14 10:08:21;;;;;;;16.83;10.15;;;;;;;;;;5024867;28;20189;-73
2023/12/14 10:10:51;;;;;;;15.03;9.90;;;;;;;;;;5028258;28;20222;-73
2023/12/14 10:13:17;;;;;;;12.67;9.93;;;;;;;;;;5018341;28;20565;-73
2023/12/14 10:15:49;;;;;;;16.27;9.87;;;;;;;;;;5032990;28;20711;-72
2023/12/14 10:18:36;;;;;;;14.10;9.63;;;;;;;;;;5020463;28;20219;-73
2023/12/14 10:21:02;;;;;;;16.13;9.73;;;;;;;;;;5017242;28;20276;-73
2023/12/14 10:23:28;;;;;;;14.87;10.17;;;;;;;;;;5019394;28;20236;-73
2023/12/14 10:25:53;;;;;;;15.13;9.77;;;;;;;;;;5015960;28;20209;-73
2023/12/14 10:28:19;;;;;;;15.27;9.73;;;;;;;;;;5027285;28;20323;-73
2023/12/14 10:30:44;;;;;;;14.03;10.13;;;;;;;;;;5013290;28;20183;-73
2023/12/14 10:33:09;;;;;;;14.73;9.77;;;;;;;;;;5015553;28;20193;-72
2023/12/14 10:35:35;;;;;;;17.13;10.93;;;;;;;;;;5014165;28;20205;-72
2023/12/14 10:38:05;;;;;;;14.87;10.37;;;;;;;;;;5013150;28;20198;-72
2023/12/14 10:40:36;;;;;;;17.73;10.93;;;;;;;;;;5012741;28;20596;-73
2023/12/14 10:43:04;;;;;;;15.80;10.03;;;;;;;;;;5013416;28;20194;-72
2023/12/14 10:45:32;;;;;;;14.77;10.23;;;;;;;;;;5012535;28;20206;-72
2023/12/14 10:48:00;;;;;;;13.27;9.57;;;;;;;;;;5028085;28;20186;-72
2023/12/14 10:50:28;;;;;;;14.67;10.17;;;;;;;;;;5015710;28;20190;-72
2023/12/14 10:52:54;;;;;;;17.23;10.70;;;;;;;;;;5022058;28;20222;-72
2023/12/14 10:55:31;;;;;;;17.13;10.73;;;;;;;;;;5014576;28;20191;-72
2023/12/14 10:58:01;;;;;;;17.13;10.07;;;;;;;;;;5019610;28;20218;-72
2023/12/14 11:00:26;;;;;;;18.83;10.80;;;;;;;;;;5015264;28;20534;-73
2023/12/14 11:02:52;;;;;;;15.07;10.90;;;;;;;;;;5019844;28;20182;-73
2023/12/14 11:05:28;;;;;;;16.83;11.40;;;;;;;;;;5017908;28;20299;-73
2023/12/14 11:08:00;;;;;;;14.07;9.93;;;;;;;;;;5009459;28;20264;-74
2023/12/14 11:10:41;;;;;;;16.27;10.60;;;;;;;;;;5019158;28;20204;-73
2023/12/14 11:13:17;;;;;;;13.83;9.63;;;;;;;;;;5086131;27;20341;-73
2023/12/14 11:15:52;;;;;;;15.00;10.93;;;;;;;;;;5077790;28;20199;-73
2023/12/14 11:18:17;;;;;;;16.47;10.40;;;;;;;;;;5058512;28;20201;-73
2023/12/14 11:20:46;;;;;;;15.70;10.07;;;;;;;;;;5028458;28;20527;-72
2023/12/14 11:23:31;;;;;;;17.37;10.20;;;;;;;;;;5048655;28;20204;-72
2023/12/14 11:26:05;;;;;;;15.57;10.30;;;;;;;;;;5065376;28;20181;-73
2023/12/14 11:28:32;;;;;;;18.33;10.80;;;;;;;;;;5061669;28;20195;-73
2023/12/14 11:30:58;;;;;;;17.27;10.43;;;;;;;;;;5054724;28;20187;-73
2023/12/14 11:33:23;;;;;;;14.90;10.30;;;;;;;;;;5050541;28;20637;-74
2023/12/14 11:35:51;;;;;;;17.17;10.60;;;;;;;;;;5045567;28;20223;-73
2023/12/14 11:38:18;;;;;;;15.67;10.20;;;;;;;;;;5028563;28;20212;-73
2023/12/14 11:40:43;;;;;;;15.73;9.83;;;;;;;;;;5056283;28;20243;-73
2023/12/14 11:43:09;;;;;;;15.77;10.60;;;;;;;;;;5015410;28;20188;-72
2023/12/14 11:45:39;;;;;;;17.57;10.57;;;;;;;;;;5044194;28;20197;-73
2023/12/14 11:48:07;;;;;;;16.07;10.23;;;;;;;;;;5043374;28;20185;-73
2023/12/14 11:50:35;;;;;;;14.97;9.73;;;;;;;;;;5044601;28;20209;-73
2023/12/14 11:53:04;;;;;;;15.33;10.77;;;;;;;;;;5054183;28;20201;-73
2023/12/14 11:55:31;;;;;;;17.50;10.20;;;;;;;;;;5063315;28;20234;-73
2023/12/14 11:57:57;;;;;;;19.67;11.30;;;;;;;;;;5027511;28;20296;-73
2023/12/14 12:00:25;;;;;;;18.23;10.90;;;;;;;;;;5057344;28;20193;-73
2023/12/14 12:02:50;;;;;;;16.50;10.43;;;;;;;;;;5058657;28;20178;-73
2023/12/14 12:05:18;;;;;;;18.77;10.37;;;;;;;;;;5053797;28;20567;-73
2023/12/14 12:07:44;;;;;;;17.27;10.73;;;;;;;;;;5057467;28;20280;-73
2023/12/14 12:10:11;;;;;;;15.90;10.30;;;;;;;;;;5060121;28;20188;-73
2023/12/14 12:12:36;;;;;;;16.53;10.83;;;;;;;;;;5061037;28;20232;-73
2023/12/14 12:15:02;;;;;;;16.87;10.77;;;;;;;;;;5035693;28;20196;-73
2023/12/14 12:17:28;;;;;;;16.93;10.67;;;;;;;;;;5036507;28;20264;-73
2023/12/14 12:19:53;;;;;;;16.33;10.17;;;;;;;;;;5049933;28;20208;-73
2023/12/14 12:22:19;;;;;;;16.17;10.17;;;;;;;;;;5067441;28;20640;-73
2023/12/14 12:24:44;;;;;;;14.80;9.73;;;;;;;;;;5048233;28;20216;-73
2023/12/14 12:27:09;;;;;;;17.90;11.03;;;;;;;;;;5026943;28;20197;-73
2023/12/14 12:29:35;;;;;;;15.13;9.83;;;;;;;;;;5020044;28;20197;-73
2023/12/14 12:32:00;;;;;;;15.07;9.70;;;;;;;;;;5039604;28;20643;-73
2023/12/14 12:34:26;;;;;;;14.90;9.87;;;;;;;;;;5036437;28;20194;-73
2023/12/14 12:36:51;;;;;;;18.47;9.83;;;;;;;;;;5036877;28;20685;-73
2023/12/14 12:39:17;;;;;;;17.30;10.00;;;;;;;;;;5051420;28;20196;-73
2023/12/14 12:41:42;;;;;;;15.57;9.87;;;;;;;;;;5036416;28;20186;-73
2023/12/14 12:44:09;;;;;;;15.53;9.83;;;;;;;;;;5029715;28;20607;-73
2023/12/14 12:46:37;;;;;;;16.77;10.10;;;;;;;;;;5049008;28;20190;-73
2023/12/14 12:49:04;;;;;;;16.47;10.13;;;;;;;;;;5030865;28;20244;-73
2023/12/14 12:51:30;;;;;;;17.50;10.13;;;;;;;;;;5029195;28;20220;-73
2023/12/14 12:53:57;;;;;;;15.43;10.20;;;;;;;;;;5007346;28;20193;-73
2023/12/14 12:56:24;;;;;;;15.53;10.27;;;;;;;;;;5044562;28;20193;-73
2023/12/14 12:58:51;;;;;;;17.43;10.83;;;;;;;;;;5028558;28;20193;-73
2023/12/14 13:01:17;;;;;;;15.80;10.37;;;;;;;;;;5018756;28;20166;-73
2023/12/14 13:03:43;;;;;;;16.17;9.80;;;;;;;;;;5025583;28;20311;-73
2023/12/14 13:06:08;;;;;;;15.20;10.00;;;;;;;;;;5046466;28;20214;-73
2023/12/14 13:08:34;;;;;;;16.07;10.00;;;;;;;;;;5028390;28;20194;-73
2023/12/14 13:10:59;;;;;;;18.87;10.87;;;;;;;;;;5018537;28;20441;-73
2023/12/14 13:13:25;;;;;;;18.83;10.87;;;;;;;;;;5027395;28;20213;-72
2023/12/14 13:15:50;;;;;;;15.97;10.13;;;;;;;;;;5005272;28;20179;-72
2023/12/14 13:18:16;;;;;;;14.57;10.10;;;;;;;;;;5021298;28;20334;-73
2023/12/14 13:20:42;;;;;;;18.87;10.37;;;;;;;;;;5012281;28;20228;-72
2023/12/14 13:23:08;;;;;;;16.13;9.70;;;;;;;;;;5015215;28;20241;-73
2023/12/14 13:25:34;;;;;;;16.10;9.97;;;;;;;;;;4998832;28;20270;-72
2023/12/14 13:28:00;;;;;;;15.97;9.73;;;;;;;;;;5021600;28;20194;-73
2023/12/14 13:30:26;;;;;;;16.10;9.80;;;;;;;;;;5019657;28;20220;-72
2023/12/14 13:32:53;;;;;;;23.73;11.90;;;;;;;;;;5008499;28;20457;-72
2023/12/14 13:35:19;;;;;;;17.73;10.13;;;;;;;;;;5010500;28;20754;-72
2023/12/14 13:37:44;;;;;;;18.63;10.63;;;;;;;;;;5030979;28;20243;-73
2023/12/14 13:40:10;;;;;;;17.00;10.87;;;;;;;;;;5003452;28;20183;-73
2023/12/14 13:42:35;;;;;;;19.07;10.70;;;;;;;;;;5029407;28;20641;-73
2023/12/14 13:45:01;;;;;;;18.23;10.27;;;;;;;;;;4998855;28;20214;-73
2023/12/14 13:47:26;;;;;;;16.93;10.43;;;;;;;;;;4992588;28;20183;-73
2023/12/14 13:49:53;;;;;;;16.87;9.87;;;;;;;;;;4997791;28;20186;-73
2023/12/14 13:52:18;;;;;;;15.83;9.80;;;;;;;;;;5000352;28;20241;-73
2023/12/14 13:54:43;;;;;;;15.30;10.13;;;;;;;;;;5004270;28;20229;-73
2023/12/14 13:57:09;;;;;;;17.10;11.37;;;;;;;;;;5014208;28;20198;-73
2023/12/14 13:59:34;;;;;;;21.00;12.43;;;;;;;;;;5013654;28;20673;-73
2023/12/14 14:02:00;;;;;;;16.57;11.20;;;;;;;;;;5001509;28;20183;-73
2023/12/14 14:04:25;;;;;;;17.23;10.57;;;;;;;;;;4999301;28;20518;-73
2023/12/14 14:06:50;;;;;;;18.37;10.50;;;;;;;;;;4986432;28;20278;-73
2023/12/14 14:09:16;;;;;;;17.83;10.93;;;;;;;;;;5022545;28;20194;-73
2023/12/14 14:11:45;;;;;;;15.90;9.90;;;;;;;;;;5022347;28;20698;-73